Station Historical Data
Daily Summary for October 13, 2017 Units:  English    Metric   Both
« Previous Day
Next Day »
Daily Weekly Monthly Yearly Custom
  High: Low: Average:
Temperature: 79.6 °F 60.4 °F 71 °F
Dew Point: 71.6 °F 58.1 °F 66.6 °F
Humidity: 94% 75% 86%
Wind Speed: 14.0mph 2.0mph 6mph
Wind Gust: 14.0mph - -
Wind- - SE
Pressure: 30.24 in 30.11 in -
Precipitation: 0.00 in    
Historical Graphs
 
 
Tabular Data for October 13, 2017
Time Temperature Dew Point Pressure Wind Wind Speed Wind Gust Humidity Rainfall Rate (Hourly) Conditions
00:00 62.6 °F 59.6 °F 30.11 in North 2.0 mph 2.0 mph 90% 0.00 in CLR
00:05 62.6 °F 59.6 °F 30.11 in North 2.0 mph 2.0 mph 90% 0.00 in CLR
00:10 62.5 °F 59.5 °F 30.11 in North 2.0 mph 2.0 mph 90% 0.00 in CLR
00:15 62.3 °F 59.3 °F 30.11 in North 2.0 mph 2.0 mph 90% 0.00 in CLR
00:20 62.2 °F 59.2 °F 30.11 in North 2.0 mph 2.0 mph 90% 0.00 in CLR
00:25 62.1 °F 59.1 °F 30.11 in North 2.0 mph 2.0 mph 90% 0.00 in CLR
00:30 62.0 °F 59.0 °F 30.11 in North 2.0 mph 2.0 mph 90% 0.00 in CLR
00:35 61.9 °F 58.9 °F 30.11 in North 2.0 mph 2.0 mph 90% 0.00 in CLR
00:40 61.9 °F 58.9 °F 30.11 in North 2.0 mph 2.0 mph 90% 0.00 in CLR
00:45 61.9 °F 59.2 °F 30.11 in North 2.0 mph 2.0 mph 91% 0.00 in CLR
00:50 61.8 °F 59.1 °F 30.11 in North 2.0 mph 2.0 mph 91% 0.00 in CLR
00:55 61.7 °F 59.1 °F 30.11 in North 2.0 mph 2.0 mph 91% 0.00 in CLR
01:00 61.6 °F 59.0 °F 30.11 in North 2.0 mph 2.0 mph 91% 0.00 in CLR
01:05 61.6 °F 58.9 °F 30.11 in North 2.0 mph 2.0 mph 91% 0.00 in CLR
01:10 61.5 °F 58.8 °F 30.11 in North 2.0 mph 2.0 mph 91% 0.00 in CLR
01:15 61.3 °F 58.7 °F 30.11 in North 2.0 mph 2.0 mph 91% 0.00 in CLR
01:20 61.3 °F 58.7 °F 30.11 in North 2.0 mph 2.0 mph 91% 0.00 in CLR
01:25 61.3 °F 58.7 °F 30.11 in North 2.0 mph 2.0 mph 91% 0.00 in CLR
01:30 61.3 °F 58.7 °F 30.11 in North 2.0 mph 2.0 mph 91% 0.00 in CLR
01:40 61.2 °F 58.6 °F 30.11 in North 2.0 mph 2.0 mph 91% 0.00 in CLR
01:45 61.1 °F 58.5 °F 30.11 in North 2.0 mph 2.0 mph 91% 0.00 in CLR
01:50 61.1 °F 58.4 °F 30.11 in North 2.0 mph 2.0 mph 91% 0.00 in CLR
01:55 61.0 °F 58.4 °F 30.11 in North 2.0 mph 2.0 mph 91% 0.00 in CLR
02:00 61.0 °F 58.4 °F 30.12 in North 2.0 mph 2.0 mph 91% 0.00 in CLR
02:05 60.9 °F 58.3 °F 30.12 in North 2.0 mph 2.0 mph 91% 0.00 in CLR
02:10 60.8 °F 58.2 °F 30.12 in North 2.0 mph 2.0 mph 91% 0.00 in CLR
02:15 60.7 °F 58.1 °F 30.12 in North 2.0 mph 2.0 mph 91% 0.00 in CLR
02:20 60.6 °F 58.3 °F 30.12 in North 2.0 mph 2.0 mph 92% 0.00 in CLR
02:25 60.6 °F 58.3 °F 30.12 in North 2.0 mph 2.0 mph 92% 0.00 in CLR
02:30 60.6 °F 58.3 °F 30.12 in North 2.0 mph 2.0 mph 92% 0.00 in CLR
02:35 60.5 °F 58.2 °F 30.12 in North 2.0 mph 2.0 mph 92% 0.00 in CLR
02:40 60.4 °F 58.1 °F 30.12 in North 2.0 mph 2.0 mph 92% 0.00 in CLR
02:45 60.4 °F 58.1 °F 30.12 in North 2.0 mph 2.0 mph 92% 0.00 in CLR
02:50 60.6 °F 58.3 °F 30.12 in North 2.0 mph 2.0 mph 92% 0.00 in CLR
02:55 60.7 °F 58.4 °F 30.12 in North 2.0 mph 2.0 mph 92% 0.00 in CLR
03:00 60.8 °F 58.5 °F 30.12 in North 2.0 mph 2.0 mph 92% 0.00 in CLR
03:05 60.8 °F 58.5 °F 30.12 in North 2.0 mph 2.0 mph 92% 0.00 in CLR
03:10 60.8 °F 58.5 °F 30.12 in North 2.0 mph 2.0 mph 92% 0.00 in CLR
03:15 60.9 °F 58.6 °F 30.12 in NNE 3.0 mph 3.0 mph 92% 0.00 in CLR
03:20 61.1 °F 58.7 °F 30.12 in NE 3.0 mph 3.0 mph 92% 0.00 in CLR
03:25 61.3 °F 58.9 °F 30.12 in NE 3.0 mph 3.0 mph 92% 0.00 in CLR
03:30 61.5 °F 59.2 °F 30.12 in NE 3.0 mph 3.0 mph 92% 0.00 in CLR
03:40 61.5 °F 58.8 °F 30.12 in NE 3.0 mph 3.0 mph 91% 0.00 in CLR
03:45 61.4 °F 58.8 °F 30.13 in NE 3.0 mph 3.0 mph 91% 0.00 in CLR
03:50 61.5 °F 58.9 °F 30.13 in NE 3.0 mph 3.0 mph 91% 0.00 in CLR
03:55 61.9 °F 59.5 °F 30.12 in NE 3.0 mph 3.0 mph 92% 0.00 in CLR
04:00 62.1 °F 59.7 °F 30.13 in NE 3.0 mph 3.0 mph 92% 0.00 in CLR
04:05 62.2 °F 59.8 °F 30.13 in NE 3.0 mph 3.0 mph 92% 0.00 in CLR
04:10 62.5 °F 60.4 °F 30.13 in NE 3.0 mph 3.0 mph 93% 0.00 in CLR
04:15 63.2 °F 61.1 °F 30.13 in NE 3.0 mph 3.0 mph 93% 0.00 in CLR
04:20 63.7 °F 62.0 °F 30.13 in NE 3.0 mph 3.0 mph 94% 0.00 in CLR
04:25 64.2 °F 62.5 °F 30.13 in NNE 3.0 mph 3.0 mph 94% 0.00 in FEW
04:30 64.6 °F 62.5 °F 30.13 in North 3.0 mph 3.0 mph 93% 0.00 in FEW
04:35 64.9 °F 62.9 °F 30.13 in North 3.0 mph 3.0 mph 93% 0.00 in FEW
04:40 65.3 °F 63.2 °F 30.13 in North 3.0 mph 3.0 mph 93% 0.00 in FEW
04:45 65.5 °F 63.4 °F 30.13 in North 3.0 mph 3.0 mph 93% 0.00 in FEW
04:50 65.7 °F 63.6 °F 30.13 in North 3.0 mph 3.0 mph 93% 0.00 in FEW
04:55 66.0 °F 63.9 °F 30.13 in North 3.0 mph 3.0 mph 93% 0.00 in FEW
05:00 66.2 °F 64.1 °F 30.13 in North 3.0 mph 3.0 mph 93% 0.00 in FEW
05:05 66.5 °F 64.4 °F 30.13 in North 3.0 mph 3.0 mph 93% 0.00 in FEW
05:10 66.6 °F 64.6 °F 30.14 in North 3.0 mph 3.0 mph 93% 0.00 in FEW
05:15 66.9 °F 65.1 °F 30.14 in NE 3.0 mph 3.0 mph 94% 0.00 in OVC
05:20 67.1 °F 65.0 °F 30.14 in ENE 3.0 mph 3.0 mph 93% 0.00 in OVC
05:25 67.2 °F 65.1 °F 30.14 in ENE 3.0 mph 3.0 mph 93% 0.00 in OVC
05:30 67.3 °F 65.2 °F 30.14 in ENE 3.0 mph 3.0 mph 93% 0.00 in OVC
05:40 67.5 °F 65.4 °F 30.14 in ENE 3.0 mph 3.0 mph 93% 0.00 in OVC
05:45 67.6 °F 65.5 °F 30.14 in ENE 3.0 mph 3.0 mph 93% 0.00 in OVC
05:50 67.7 °F 65.6 °F 30.15 in ENE 3.0 mph 3.0 mph 93% 0.00 in OVC
05:55 67.9 °F 65.8 °F 30.15 in ENE 3.0 mph 3.0 mph 93% 0.00 in OVC
06:00 68.1 °F 66.0 °F 30.15 in ENE 3.0 mph 3.0 mph 93% 0.00 in OVC
06:05 68.2 °F 66.1 °F 30.15 in ENE 3.0 mph 3.0 mph 93% 0.00 in OVC
06:10 68.5 °F 66.4 °F 30.15 in ENE 3.0 mph 3.0 mph 93% 0.00 in OVC
06:15 68.7 °F 66.6 °F 30.15 in ENE 6.0 mph 6.0 mph 93% 0.00 in OVC
06:20 69.0 °F 66.8 °F 30.15 in East 6.0 mph 6.0 mph 93% 0.00 in OVC
06:25 69.1 °F 67.0 °F 30.16 in East 8.0 mph 8.0 mph 93% 0.00 in OVC
06:30 69.2 °F 67.1 °F 30.15 in East 8.0 mph 8.0 mph 93% 0.00 in OVC
06:40 69.4 °F 67.3 °F 30.16 in East 8.0 mph 8.0 mph 93% 0.00 in OVC
06:45 69.5 °F 67.4 °F 30.16 in East 7.0 mph 8.0 mph 93% 0.00 in BKN
06:50 69.7 °F 67.6 °F 30.16 in East 7.0 mph 7.0 mph 93% 0.00 in BKN
06:55 69.7 °F 67.3 °F 30.16 in East 7.0 mph 7.0 mph 92% 0.00 in OVC
07:00 69.8 °F 67.4 °F 30.16 in East 7.0 mph 7.0 mph 92% 0.00 in OVC
07:05 69.9 °F 67.5 °F 30.16 in East 7.0 mph 7.0 mph 92% 0.00 in OVC
07:10 69.9 °F 67.5 °F 30.16 in East 7.0 mph 7.0 mph 92% 0.00 in OVC
07:15 69.9 °F 67.5 °F 30.16 in ENE 7.0 mph 7.0 mph 92% 0.00 in OVC
07:20 70.0 °F 67.6 °F 30.17 in ENE 7.0 mph 7.0 mph 92% 0.00 in OVC
07:25 70.1 °F 67.7 °F 30.17 in ENE 7.0 mph 7.0 mph 92% 0.00 in OVC
07:30 70.1 °F 67.3 °F 30.17 in ENE 7.0 mph 7.0 mph 91% 0.00 in OVC
07:35 70.1 °F 67.3 °F 30.17 in ENE 7.0 mph 7.0 mph 91% 0.00 in OVC
07:40 70.2 °F 67.4 °F 30.17 in ENE 7.0 mph 7.0 mph 91% 0.00 in OVC
07:45 70.2 °F 67.4 °F 30.17 in ENE 7.0 mph 7.0 mph 91% 0.00 in OVC
07:50 70.2 °F 67.4 °F 30.17 in ENE 7.0 mph 7.0 mph 91% 0.00 in OVC
07:55 70.2 °F 67.4 °F 30.17 in ENE 7.0 mph 7.0 mph 91% 0.00 in OVC
08:00 70.3 °F 67.5 °F 30.17 in ENE 7.0 mph 7.0 mph 91% 0.00 in OVC
08:05 70.3 °F 67.5 °F 30.18 in ENE 7.0 mph 7.0 mph 91% 0.00 in OVC
08:10 70.3 °F 67.5 °F 30.18 in ENE 7.0 mph 7.0 mph 91% 0.00 in OVC
08:15 70.4 °F 67.6 °F 30.18 in ENE 6.0 mph 7.0 mph 91% 0.00 in OVC
08:20 70.4 °F 67.3 °F 30.18 in East 6.0 mph 6.0 mph 90% 0.00 in OVC
08:25 70.5 °F 67.4 °F 30.18 in North 6.0 mph 6.0 mph 90% 0.00 in OVC
08:30 70.5 °F 67.4 °F 30.18 in West 6.0 mph 6.0 mph 90% 0.00 in OVC
08:40 70.6 °F 67.5 °F 30.18 in West 6.0 mph 6.0 mph 90% 0.00 in OVC
08:45 70.7 °F 67.6 °F 30.19 in West 6.0 mph 6.0 mph 90% 0.00 in OVC
08:50 70.7 °F 67.6 °F 30.19 in WNW 6.0 mph 6.0 mph 90% 0.00 in OVC
08:55 70.8 °F 67.7 °F 30.19 in ENE 7.0 mph 7.0 mph 90% 0.00 in OVC
09:00 70.8 °F 67.8 °F 30.19 in East 7.0 mph 7.0 mph 90% 0.00 in OVC
09:05 71.0 °F 67.9 °F 30.19 in East 7.0 mph 7.0 mph 90% 0.00 in OVC
09:10 71.1 °F 68.0 °F 30.19 in East 7.0 mph 7.0 mph 90% 0.00 in OVC
09:15 71.2 °F 68.1 °F 30.19 in East 5.0 mph 7.0 mph 90% 0.00 in OVC
09:20 71.3 °F 68.2 °F 30.20 in East 5.0 mph 5.0 mph 90% 0.00 in OVC
09:25 71.4 °F 68.0 °F 30.20 in East 5.0 mph 5.0 mph 89% 0.00 in OVC
09:30 71.5 °F 68.1 °F 30.20 in East 5.0 mph 5.0 mph 89% 0.00 in OVC
09:35 71.7 °F 68.3 °F 30.20 in East 5.0 mph 5.0 mph 89% 0.00 in OVC
09:40 71.8 °F 68.4 °F 30.20 in East 5.0 mph 5.0 mph 89% 0.00 in OVC
09:45 71.9 °F 68.2 °F 30.20 in East 5.0 mph 5.0 mph 88% 0.00 in OVC
09:50 72.1 °F 68.3 °F 30.21 in East 5.0 mph 5.0 mph 88% 0.00 in OVC
09:55 72.2 °F 68.1 °F 30.21 in East 5.0 mph 5.0 mph 87% 0.00 in OVC
10:00 72.4 °F 68.3 °F 30.21 in East 5.0 mph 5.0 mph 87% 0.00 in OVC
10:05 72.5 °F 68.1 °F 30.21 in East 5.0 mph 5.0 mph 86% 0.00 in OVC
10:10 72.7 °F 68.3 °F 30.21 in East 5.0 mph 5.0 mph 86% 0.00 in OVC
10:15 72.9 °F 68.5 °F 30.21 in East 10.0 mph 10.0 mph 86% 0.00 in BKN
10:20 73.1 °F 68.7 °F 30.21 in East 10.0 mph 10.0 mph 86% 0.00 in BKN
10:25 73.3 °F 68.5 °F 30.22 in East 10.0 mph 10.0 mph 85% 0.00 in BKN
10:30 73.5 °F 68.3 °F 30.22 in East 10.0 mph 10.0 mph 84% 0.00 in BKN
10:35 73.6 °F 68.5 °F 30.22 in East 10.0 mph 10.0 mph 84% 0.00 in BKN
10:40 73.9 °F 68.8 °F 30.22 in East 10.0 mph 10.0 mph 84% 0.00 in BKN
10:45 74.4 °F 69.2 °F 30.22 in East 10.0 mph 10.0 mph 84% 0.00 in BKN
10:50 74.4 °F 68.9 °F 30.22 in East 10.0 mph 10.0 mph 83% 0.00 in BKN
11:00 75.1 °F 69.2 °F 30.22 in East 10.0 mph 10.0 mph 82% 0.00 in BKN
11:05 75.4 °F 69.1 °F 30.22 in East 10.0 mph 10.0 mph 81% 0.00 in BKN
11:10 75.8 °F 69.2 °F 30.22 in East 10.0 mph 10.0 mph 80% 0.00 in BKN
11:15 76.0 °F 69.4 °F 30.22 in East 10.0 mph 10.0 mph 80% 0.00 in BKN
11:20 76.4 °F 69.8 °F 30.22 in East 10.0 mph 10.0 mph 80% 0.00 in BKN
11:25 76.6 °F 69.6 °F 30.22 in East 10.0 mph 10.0 mph 79% 0.00 in BKN
11:30 76.7 °F 69.7 °F 30.22 in East 10.0 mph 10.0 mph 79% 0.00 in BKN
11:35 77.4 °F 70.0 °F 30.22 in East 10.0 mph 10.0 mph 78% 0.00 in BKN
11:40 77.5 °F 70.1 °F 30.22 in East 10.0 mph 10.0 mph 78% 0.00 in BKN
11:45 77.4 °F 70.0 °F 30.22 in East 10.0 mph 10.0 mph 78% 0.00 in BKN
11:55 77.0 °F 70.0 °F 30.22 in East 10.0 mph 10.0 mph 79% 0.00 in BKN
12:00 76.9 °F 69.9 °F 30.22 in East 10.0 mph 10.0 mph 79% 0.00 in BKN
12:05 77.0 °F 70.4 °F 30.22 in East 10.0 mph 10.0 mph 80% 0.00 in BKN
12:10 76.9 °F 69.9 °F 30.22 in East 10.0 mph 10.0 mph 79% 0.00 in BKN
12:15 76.6 °F 70.0 °F 30.22 in East 9.0 mph 10.0 mph 80% 0.00 in OVC
12:20 76.3 °F 70.0 °F 30.22 in East 9.0 mph 9.0 mph 81% 0.00 in OVC
12:25 75.8 °F 69.9 °F 30.22 in East 9.0 mph 9.0 mph 82% 0.00 in OVC
12:30 75.3 °F 69.4 °F 30.22 in East 9.0 mph 9.0 mph 82% 0.00 in OVC
12:35 75.3 °F 70.1 °F 30.22 in East 9.0 mph 9.0 mph 84% 0.00 in OVC
12:40 75.4 °F 70.2 °F 30.22 in East 9.0 mph 9.0 mph 84% 0.00 in OVC
12:45 75.3 °F 69.8 °F 30.22 in East 9.0 mph 9.0 mph 83% 0.00 in OVC
12:50 75.1 °F 69.9 °F 30.22 in East 9.0 mph 9.0 mph 84% 0.00 in OVC
12:55 75.0 °F 69.8 °F 30.22 in East 9.0 mph 9.0 mph 84% 0.00 in OVC
13:00 74.9 °F 69.7 °F 30.22 in East 9.0 mph 9.0 mph 84% 0.00 in OVC
13:05 74.5 °F 69.4 °F 30.21 in East 9.0 mph 9.0 mph 84% 0.00 in OVC
13:10 74.4 °F 69.6 °F 30.21 in East 9.0 mph 9.0 mph 85% 0.00 in OVC
13:15 74.4 °F 69.9 °F 30.21 in ESE 14.0 mph 14.0 mph 86% 0.00 in -RA
13:20 74.4 °F 69.9 °F 30.21 in ESE 14.0 mph 14.0 mph 86% 0.00 in -RA
13:25 74.4 °F 69.9 °F 30.21 in ESE 14.0 mph 14.0 mph 86% 0.00 in -RA
13:30 74.6 °F 70.1 °F 30.20 in ESE 14.0 mph 14.0 mph 86% 0.00 in -RA
13:35 75.5 °F 71.0 °F 30.20 in ESE 14.0 mph 14.0 mph 86% 0.00 in -RA
13:40 76.2 °F 70.6 °F 30.20 in ESE 14.0 mph 14.0 mph 83% 0.00 in -RA
13:50 76.6 °F 70.3 °F 30.19 in East 7.0 mph 7.0 mph 81% 0.00 in BKN
13:55 76.1 °F 70.2 °F 30.19 in East 7.0 mph 7.0 mph 82% 0.00 in BKN
14:00 75.8 °F 69.9 °F 30.19 in East 7.0 mph 7.0 mph 82% 0.00 in BKN
14:05 75.7 °F 69.8 °F 30.19 in East 7.0 mph 7.0 mph 82% 0.00 in BKN
14:10 75.5 °F 69.6 °F 30.19 in East 7.0 mph 7.0 mph 82% 0.00 in BKN
14:15 75.8 °F 70.2 °F 30.18 in East 6.0 mph 7.0 mph 83% 0.00 in OVC
14:20 76.5 °F 71.0 °F 30.18 in East 6.0 mph 6.0 mph 83% 0.00 in OVC
14:25 77.0 °F 70.4 °F 30.18 in ESE 9.0 mph 9.0 mph 80% 0.00 in OVC
14:30 77.1 °F 70.1 °F 30.18 in ESE 9.0 mph 9.0 mph 79% 0.00 in OVC
14:35 77.4 °F 70.7 °F 30.18 in ESE 9.0 mph 9.0 mph 80% 0.00 in OVC
14:40 77.8 °F 70.4 °F 30.18 in ESE 9.0 mph 9.0 mph 78% 0.00 in OVC
14:45 78.3 °F 71.2 °F 30.18 in ESE 9.0 mph 9.0 mph 79% 0.00 in BKN
14:50 78.8 °F 71.0 °F 30.17 in ESE 9.0 mph 9.0 mph 77% 0.00 in BKN
14:55 79.5 °F 71.6 °F 30.17 in ESE 9.0 mph 9.0 mph 77% 0.00 in BKN
15:00 79.6 °F 71.4 °F 30.17 in ESE 9.0 mph 9.0 mph 76% 0.00 in BKN
15:05 79.2 °F 71.0 °F 30.17 in ESE 9.0 mph 9.0 mph 76% 0.00 in BKN
15:10 78.9 °F 70.7 °F 30.17 in ESE 9.0 mph 9.0 mph 76% 0.00 in BKN
15:15 78.7 °F 70.9 °F 30.17 in ESE 7.0 mph 9.0 mph 77% 0.00 in BKN
15:20 78.8 °F 70.6 °F 30.17 in East 7.0 mph 7.0 mph 76% 0.00 in BKN
15:25 79.0 °F 70.4 °F 30.17 in East 7.0 mph 7.0 mph 75% 0.00 in BKN
15:30 78.9 °F 70.7 °F 30.17 in East 7.0 mph 7.0 mph 76% 0.00 in BKN
15:35 78.6 °F 70.4 °F 30.17 in East 7.0 mph 7.0 mph 76% 0.00 in BKN
15:40 78.5 °F 70.3 °F 30.17 in East 7.0 mph 7.0 mph 76% 0.00 in BKN
15:45 78.4 °F 70.6 °F 30.16 in East 7.0 mph 7.0 mph 77% 0.00 in BKN
15:50 78.5 °F 70.3 °F 30.16 in East 7.0 mph 7.0 mph 76% 0.00 in BKN
15:55 78.6 °F 70.8 °F 30.16 in SE 5.0 mph 7.0 mph 77% 0.00 in SCT
16:00 78.5 °F 70.3 °F 30.17 in South 5.0 mph 5.0 mph 76% 0.00 in SCT
16:05 78.4 °F 71.0 °F 30.16 in South 5.0 mph 5.0 mph 78% 0.00 in SCT
16:10 78.6 °F 71.2 °F 30.16 in South 5.0 mph 5.0 mph 78% 0.00 in SCT
16:15 78.4 °F 70.2 °F 30.16 in SE 7.0 mph 7.0 mph 76% 0.00 in SCT
16:20 78.2 °F 70.4 °F 30.16 in SE 7.0 mph 7.0 mph 77% 0.00 in SCT
16:25 78.0 °F 70.6 °F 30.16 in SE 7.0 mph 7.0 mph 78% 0.00 in SCT
16:30 77.8 °F 70.4 °F 30.16 in SE 7.0 mph 7.0 mph 78% 0.00 in SCT
16:35 77.7 °F 70.7 °F 30.16 in SE 7.0 mph 7.0 mph 79% 0.00 in SCT
16:40 77.6 °F 70.2 °F 30.16 in SE 7.0 mph 7.0 mph 78% 0.00 in SCT
16:45 77.6 °F 70.9 °F 30.16 in SE 7.0 mph 7.0 mph 80% 0.00 in SCT
16:50 77.6 °F 70.9 °F 30.16 in SE 7.0 mph 7.0 mph 80% 0.00 in SCT
16:55 77.6 °F 70.2 °F 30.16 in SE 7.0 mph 7.0 mph 78% 0.00 in SCT
17:00 77.7 °F 70.3 °F 30.16 in SE 7.0 mph 7.0 mph 78% 0.00 in SCT
17:05 77.8 °F 70.8 °F 30.16 in SE 7.0 mph 7.0 mph 79% 0.00 in SCT
17:10 77.8 °F 70.8 °F 30.16 in SE 7.0 mph 7.0 mph 79% 0.00 in SCT
17:15 77.8 °F 70.3 °F 30.16 in SE 8.0 mph 8.0 mph 78% 0.00 in SCT
17:20 77.6 °F 70.6 °F 30.16 in ESE 8.0 mph 8.0 mph 79% 0.00 in SCT
17:25 77.4 °F 70.7 °F 30.16 in ESE 8.0 mph 8.0 mph 80% 0.00 in SCT
17:30 77.1 °F 70.5 °F 30.16 in ESE 8.0 mph 8.0 mph 80% 0.00 in SCT
17:35 76.9 °F 70.6 °F 30.16 in ESE 8.0 mph 8.0 mph 81% 0.00 in SCT
17:40 76.8 °F 70.5 °F 30.16 in ESE 8.0 mph 8.0 mph 81% 0.00 in SCT
17:45 76.9 °F 70.3 °F 30.16 in ESE 8.0 mph 8.0 mph 80% 0.00 in SCT
17:50 77.0 °F 70.4 °F 30.16 in ESE 8.0 mph 8.0 mph 80% 0.00 in SCT
17:55 77.0 °F 70.4 °F 30.16 in ESE 8.0 mph 8.0 mph 80% 0.00 in SCT
18:00 76.9 °F 70.3 °F 30.16 in ESE 8.0 mph 8.0 mph 80% 0.00 in SCT
18:05 76.8 °F 70.2 °F 30.15 in ESE 8.0 mph 8.0 mph 80% 0.00 in SCT
18:10 76.7 °F 70.1 °F 30.16 in ESE 8.0 mph 8.0 mph 80% 0.00 in SCT
18:15 76.6 °F 70.3 °F 30.16 in East 3.0 mph 8.0 mph 81% 0.00 in FEW
18:20 76.4 °F 70.5 °F 30.16 in ENE 3.0 mph 3.0 mph 82% 0.00 in FEW
18:25 76.2 °F 70.3 °F 30.16 in ENE 3.0 mph 3.0 mph 82% 0.00 in FEW
18:30 76.0 °F 70.5 °F 30.16 in ENE 3.0 mph 3.0 mph 83% 0.00 in FEW
18:40 75.8 °F 70.2 °F 30.16 in ENE 3.0 mph 3.0 mph 83% 0.00 in FEW
18:45 75.6 °F 70.1 °F 30.16 in ENE 3.0 mph 3.0 mph 83% 0.00 in FEW
18:50 75.5 °F 69.9 °F 30.17 in ENE 3.0 mph 3.0 mph 83% 0.00 in FEW
18:55 75.2 °F 69.7 °F 30.16 in ENE 3.0 mph 3.0 mph 83% 0.00 in FEW
19:00 75.0 °F 69.5 °F 30.17 in ENE 3.0 mph 3.0 mph 83% 0.00 in FEW
19:05 74.8 °F 69.7 °F 30.17 in ENE 3.0 mph 3.0 mph 84% 0.00 in FEW
19:10 74.6 °F 69.4 °F 30.17 in ENE 3.0 mph 3.0 mph 84% 0.00 in FEW
19:15 74.3 °F 69.4 °F 30.17 in ENE 3.0 mph 3.0 mph 85% 0.00 in FEW
19:20 74.0 °F 69.2 °F 30.17 in ENE 3.0 mph 3.0 mph 85% 0.00 in FEW
19:25 73.9 °F 69.1 °F 30.17 in ENE 3.0 mph 3.0 mph 85% 0.00 in FEW
19:30 73.7 °F 69.2 °F 30.17 in ENE 3.0 mph 3.0 mph 86% 0.00 in FEW
19:35 73.5 °F 69.1 °F 30.18 in ENE 3.0 mph 3.0 mph 86% 0.00 in FEW
19:40 73.4 °F 68.9 °F 30.18 in ENE 3.0 mph 3.0 mph 86% 0.00 in FEW
19:45 73.3 °F 68.9 °F 30.18 in ENE 3.0 mph 3.0 mph 86% 0.00 in FEW
19:50 73.2 °F 68.8 °F 30.18 in ENE 3.0 mph 3.0 mph 86% 0.00 in FEW
19:55 73.1 °F 68.7 °F 30.18 in ENE 3.0 mph 3.0 mph 86% 0.00 in FEW
20:00 73.1 °F 68.7 °F 30.18 in ENE 3.0 mph 3.0 mph 86% 0.00 in FEW
20:05 73.0 °F 68.5 °F 30.18 in ENE 3.0 mph 3.0 mph 86% 0.00 in FEW
20:10 72.8 °F 68.4 °F 30.18 in ENE 3.0 mph 3.0 mph 86% 0.00 in FEW
20:15 72.7 °F 68.3 °F 30.19 in ENE 3.0 mph 3.0 mph 86% 0.00 in FEW
20:20 72.6 °F 68.2 °F 30.19 in ENE 3.0 mph 3.0 mph 86% 0.00 in FEW
20:25 72.4 °F 68.0 °F 30.19 in ENE 3.0 mph 3.0 mph 86% 0.00 in FEW
20:30 72.3 °F 67.9 °F 30.19 in ENE 3.0 mph 3.0 mph 86% 0.00 in FEW
20:40 72.1 °F 67.7 °F 30.19 in ENE 3.0 mph 3.0 mph 86% 0.00 in FEW
20:45 72.0 °F 67.5 °F 30.19 in ENE 7.0 mph 7.0 mph 86% 0.00 in BKN
20:50 71.8 °F 67.4 °F 30.19 in East 7.0 mph 7.0 mph 86% 0.00 in BKN
20:55 71.6 °F 67.2 °F 30.19 in East 7.0 mph 7.0 mph 86% 0.00 in BKN
21:00 71.5 °F 67.1 °F 30.19 in East 7.0 mph 7.0 mph 86% 0.00 in BKN
21:05 71.4 °F 67.3 °F 30.20 in East 7.0 mph 7.0 mph 87% 0.00 in BKN
21:10 71.2 °F 67.1 °F 30.20 in East 7.0 mph 7.0 mph 87% 0.00 in BKN
21:15 71.1 °F 67.0 °F 30.20 in East 8.0 mph 8.0 mph 87% 0.00 in BKN
21:20 71.0 °F 66.9 °F 30.20 in East 8.0 mph 8.0 mph 87% 0.00 in BKN
21:25 70.9 °F 66.8 °F 30.20 in East 8.0 mph 8.0 mph 87% 0.00 in BKN
21:30 70.9 °F 66.8 °F 30.20 in East 8.0 mph 8.0 mph 87% 0.00 in BKN
21:35 70.8 °F 66.7 °F 30.21 in East 8.0 mph 8.0 mph 87% 0.00 in BKN
21:40 70.7 °F 66.6 °F 30.20 in East 8.0 mph 8.0 mph 87% 0.00 in BKN
21:45 70.6 °F 66.5 °F 30.21 in East 8.0 mph 8.0 mph 87% 0.00 in BKN
21:50 70.5 °F 66.4 °F 30.21 in East 8.0 mph 8.0 mph 87% 0.00 in BKN
21:55 70.3 °F 66.3 °F 30.21 in East 8.0 mph 8.0 mph 87% 0.00 in BKN
22:00 70.2 °F 66.5 °F 30.21 in East 8.0 mph 8.0 mph 88% 0.00 in BKN
22:05 70.1 °F 66.4 °F 30.21 in East 8.0 mph 8.0 mph 88% 0.00 in BKN
22:10 70.0 °F 66.3 °F 30.21 in East 8.0 mph 8.0 mph 88% 0.00 in BKN
22:15 69.9 °F 66.2 °F 30.22 in East 9.0 mph 9.0 mph 88% 0.00 in BKN
22:20 69.9 °F 66.2 °F 30.22 in East 9.0 mph 9.0 mph 88% 0.00 in BKN
22:25 70.0 °F 66.3 °F 30.22 in East 9.0 mph 9.0 mph 88% 0.00 in BKN
22:30 70.0 °F 66.3 °F 30.22 in East 9.0 mph 9.0 mph 88% 0.00 in BKN
22:40 70.1 °F 66.0 °F 30.23 in East 9.0 mph 9.0 mph 87% 0.00 in BKN
22:45 70.1 °F 66.0 °F 30.23 in East 9.0 mph 9.0 mph 87% 0.00 in BKN
22:50 70.1 °F 66.0 °F 30.23 in East 9.0 mph 9.0 mph 87% 0.00 in BKN
22:55 70.1 °F 66.0 °F 30.23 in East 9.0 mph 9.0 mph 87% 0.00 in BKN
23:00 70.1 °F 66.0 °F 30.23 in East 9.0 mph 9.0 mph 87% 0.00 in BKN
23:05 70.1 °F 66.0 °F 30.23 in East 9.0 mph 9.0 mph 87% 0.00 in BKN
23:10 70.0 °F 66.0 °F 30.23 in East 9.0 mph 9.0 mph 87% 0.00 in BKN
23:15 70.1 °F 66.0 °F 30.23 in East 8.0 mph 9.0 mph 87% 0.00 in OVC
23:20 70.0 °F 66.0 °F 30.23 in East 8.0 mph 8.0 mph 87% 0.00 in OVC
23:25 70.0 °F 66.0 °F 30.23 in East 8.0 mph 8.0 mph 87% 0.00 in OVC
23:30 70.0 °F 66.0 °F 30.23 in East 8.0 mph 8.0 mph 87% 0.00 in OVC
23:35 70.0 °F 66.0 °F 30.23 in East 8.0 mph 8.0 mph 87% 0.00 in OVC
23:40 70.0 °F 66.0 °F 30.24 in East 8.0 mph 8.0 mph 87% 0.00 in OVC
23:45 69.9 °F 65.9 °F 30.24 in East 8.0 mph 8.0 mph 87% 0.00 in OVC
23:50 69.9 °F 65.9 °F 30.23 in East 8.0 mph 8.0 mph 87% 0.00 in OVC
23:55 69.9 °F 65.9 °F 30.23 in East 8.0 mph 8.0 mph 87% 0.00 in OVC
Piedmont Bend
Compliments of Weather Underground - 4 mb